Time,TemperatureF,DewpointF,PressureIn,WindDirection,WindDirectionDegrees,WindSpeedMPH,WindSpeedGustMPH,Humidity,HourlyPrecipIn,Conditions,Clouds,dailyrainin,SoftwareType,DateUTC
2013-03-15 00:00:00,17.2,-0.9,29.29,WNW,292,7.2,7.2,44,0.00,,---,0.00,VWS V14.01,2013-03-15 04:00:00,
2013-03-15 00:01:00,17.1,-1.1,29.29,NNW,338,11.9,11.9,44,0.00,,---,0.00,VWS V14.01,2013-03-15 04:01:00,
2013-03-15 00:03:00,17.1,-1.1,29.29,SW,225,2.9,4.7,44,0.00,,---,0.00,VWS V14.01,2013-03-15 04:03:00,
2013-03-15 00:04:00,17.1,-1.1,29.29,NNW,338,2.7,7.4,44,0.00,,---,0.00,VWS V14.01,2013-03-15 04:04:00,
2013-03-15 00:10:00,17.1,-1.1,29.29,SSW,202,2.9,5.4,44,0.00,,---,0.00,VWS V14.01,2013-03-15 04:10:00,
2013-03-15 00:16:00,16.9,-1.2,29.29,SW,225,2.9,5.6,44,0.00,,---,0.00,VWS V14.01,2013-03-15 04:16:00,
2013-03-15 00:21:00,16.9,-1.2,29.29,North,0,2.9,5.8,44,0.00,,---,0.00,VWS V14.01,2013-03-15 04:21:00,
2013-03-15 00:27:00,16.9,-1.2,29.29,WNW,292,6.3,7.6,44,0.00,,---,0.00,VWS V14.01,2013-03-15 04:27:00,
2013-03-15 00:32:00,16.9,-1.2,29.32,SSW,202,2.0,2.9,44,0.00,,---,0.00,VWS V14.01,2013-03-15 04:32:00,
2013-03-15 00:38:00,16.9,-1.2,29.32,SSW,202,2.2,6.5,44,0.00,,---,0.00,VWS V14.01,2013-03-15 04:38:00,
2013-03-15 00:43:00,16.9,-1.2,29.29,ENE,68,1.6,3.4,44,0.00,,---,0.00,VWS V14.01,2013-03-15 04:43:00,
2013-03-15 00:49:00,16.9,-1.2,29.29,North,0,4.3,6.0,44,0.00,,---,0.00,VWS V14.01,2013-03-15 04:49:00,
2013-03-15 00:54:00,16.9,-1.2,29.29,SE,135,6.3,6.3,44,0.00,,---,0.00,VWS V14.01,2013-03-15 04:54:00,
2013-03-15 00:59:00,16.9,-1.2,29.32,SSW,202,3.4,4.0,44,0.00,,---,0.00,VWS V14.01,2013-03-15 04:59:00,
2013-03-15 01:04:00,16.9,-1.2,29.32,ENE,68,3.4,6.3,44,0.00,,---,0.00,VWS V14.01,2013-03-15 05:04:00,
2013-03-15 01:09:00,16.9,-1.2,29.32,WSW,248,4.0,8.7,44,0.00,,---,0.00,VWS V14.01,2013-03-15 05:09:00,
2013-03-15 01:14:00,16.9,-1.2,29.29,North,0,2.9,2.9,44,0.00,,---,0.00,VWS V14.01,2013-03-15 05:14:00,
2013-03-15 01:19:00,16.9,-1.2,29.29,SSW,202,2.9,3.4,44,0.00,,---,0.00,VWS V14.01,2013-03-15 05:19:00,
2013-03-15 01:25:00,16.7,-1.4,29.29,WNW,292,7.6,7.6,44,0.00,,---,0.00,VWS V14.01,2013-03-15 05:25:00,
2013-03-15 01:31:00,16.7,-1.4,29.32,NNE,22,3.8,6.0,44,0.00,,---,0.00,VWS V14.01,2013-03-15 05:31:00,
2013-03-15 01:36:00,16.7,-1.4,29.32,NNW,338,2.0,5.8,44,0.00,,---,0.00,VWS V14.01,2013-03-15 05:36:00,
2013-03-15 01:41:00,16.7,-1.4,29.32,SW,225,3.6,4.3,44,0.00,,---,0.00,VWS V14.01,2013-03-15 05:41:00,
2013-03-15 01:46:00,16.7,-1.4,29.29,WNW,292,3.6,4.3,44,0.00,,---,0.00,VWS V14.01,2013-03-15 05:46:00,
2013-03-15 01:51:00,16.7,-1.4,29.29,ENE,68,3.8,5.6,44,0.00,,---,0.00,VWS V14.01,2013-03-15 05:51:00,
2013-03-15 01:56:00,16.7,-1.4,29.29,West,270,3.8,7.2,44,0.00,,---,0.00,VWS V14.01,2013-03-15 05:56:00,
2013-03-15 02:02:00,16.7,-1.4,29.32,WSW,248,2.5,4.0,44,0.00,,---,0.00,VWS V14.01,2013-03-15 06:02:00,
2013-03-15 02:07:00,16.5,-1.6,29.32,WSW,248,3.1,8.1,44,0.00,,---,0.00,VWS V14.01,2013-03-15 06:07:00,
2013-03-15 02:12:00,16.5,-1.1,29.29,West,270,4.7,8.7,45,0.00,,---,0.00,VWS V14.01,2013-03-15 06:12:00,
2013-03-15 02:17:00,16.7,-1.4,29.29,SSW,202,2.9,6.0,44,0.00,,---,0.00,VWS V14.01,2013-03-15 06:17:00,
2013-03-15 02:22:00,16.7,-1.4,29.29,West,270,2.7,2.9,44,0.00,,---,0.00,VWS V14.01,2013-03-15 06:22:00,
2013-03-15 02:28:00,16.5,-1.6,29.32,SSE,158,4.7,5.6,44,0.00,,---,0.00,VWS V14.01,2013-03-15 06:28:00,
2013-03-15 02:33:00,16.7,-1.4,29.32,SW,225,6.3,6.3,44,0.00,,---,0.00,VWS V14.01,2013-03-15 06:33:00,
2013-03-15 02:38:00,16.7,-1.4,29.32,ENE,68,2.9,3.8,44,0.00,,---,0.00,VWS V14.01,2013-03-15 06:38:00,
2013-03-15 02:44:00,16.5,-1.6,29.29,NNE,22,4.0,6.3,44,0.00,,---,0.00,VWS V14.01,2013-03-15 06:44:00,
2013-03-15 02:49:00,16.5,-1.6,29.29,West,270,3.8,3.8,44,0.00,,---,0.00,VWS V14.01,2013-03-15 06:49:00,
2013-03-15 02:54:00,16.5,-1.1,29.29,WSW,248,2.7,6.7,45,0.00,,---,0.00,VWS V14.01,2013-03-15 06:54:00,
2013-03-15 03:00:00,16.5,-1.1,29.32,North,0,4.0,5.6,45,0.00,,---,0.00,VWS V14.01,2013-03-15 07:00:00,
2013-03-15 03:05:00,16.2,-1.4,29.32,WSW,248,6.3,6.3,45,0.00,,---,0.00,VWS V14.01,2013-03-15 07:05:00,
2013-03-15 03:10:00,16.0,-1.6,29.32,ESE,112,4.0,4.0,45,0.00,,---,0.00,VWS V14.01,2013-03-15 07:10:00,
2013-03-15 03:15:00,16.0,-1.6,29.32,NNW,338,2.5,4.0,45,0.00,,---,0.00,VWS V14.01,2013-03-15 07:15:00,
2013-03-15 03:20:00,16.0,-1.6,29.32,WSW,248,2.0,3.6,45,0.00,,---,0.00,VWS V14.01,2013-03-15 07:20:00,
2013-03-15 03:25:00,16.0,-1.6,29.32,WNW,292,2.9,4.3,45,0.00,,---,0.00,VWS V14.01,2013-03-15 07:25:00,
2013-03-15 03:30:00,15.8,-1.3,29.32,WNW,292,2.0,2.0,46,0.00,,---,0.00,VWS V14.01,2013-03-15 07:30:00,
2013-03-15 03:36:00,16.0,-1.6,29.32,WSW,248,3.6,4.0,45,0.00,,---,0.00,VWS V14.01,2013-03-15 07:36:00,
2013-03-15 03:41:00,16.0,-1.6,29.32,SSW,202,5.4,5.4,45,0.00,,---,0.00,VWS V14.01,2013-03-15 07:41:00,
2013-03-15 03:47:00,15.8,-1.8,29.32,SW,225,3.1,3.6,45,0.00,,---,0.00,VWS V14.01,2013-03-15 07:47:00,
2013-03-15 03:52:00,15.6,-1.9,29.32,NW,315,2.7,5.4,45,0.00,,---,0.00,VWS V14.01,2013-03-15 07:52:00,
2013-03-15 03:57:00,15.6,-1.9,29.29,SSW,202,2.5,6.0,45,0.00,,---,0.00,VWS V14.01,2013-03-15 07:57:00,
2013-03-15 04:02:00,15.8,-1.8,29.29,SSE,158,1.6,5.4,45,0.00,,---,0.00,VWS V14.01,2013-03-15 08:02:00,
2013-03-15 04:07:00,15.8,-1.8,29.29,West,270,3.8,5.6,45,0.00,,---,0.00,VWS V14.01,2013-03-15 08:07:00,
2013-03-15 04:12:00,15.8,-1.8,29.32,WSW,248,2.5,3.4,45,0.00,,---,0.00,VWS V14.01,2013-03-15 08:12:00,
2013-03-15 04:17:00,15.8,-1.8,29.32,WNW,292,3.8,4.9,45,0.00,,---,0.00,VWS V14.01,2013-03-15 08:17:00,
2013-03-15 04:22:00,15.4,-2.1,29.32,WNW,292,3.1,6.3,45,0.00,,---,0.00,VWS V14.01,2013-03-15 08:22:00,
2013-03-15 04:27:00,15.3,-2.3,29.32,North,0,2.0,2.2,45,0.00,,---,0.00,VWS V14.01,2013-03-15 08:27:00,
2013-03-15 04:32:00,15.3,-2.7,29.32,West,270,2.5,6.3,44,0.00,,---,0.00,VWS V14.01,2013-03-15 08:32:00,
2013-03-15 04:38:00,15.4,-2.6,29.32,SSE,158,5.8,5.8,44,0.00,,---,0.00,VWS V14.01,2013-03-15 08:38:00,
2013-03-15 04:44:00,15.4,-2.1,29.32,SSW,202,2.0,2.7,45,0.00,,---,0.00,VWS V14.01,2013-03-15 08:44:00,
2013-03-15 04:49:00,15.3,-2.7,29.32,NNE,22,3.8,3.8,44,0.00,,---,0.00,VWS V14.01,2013-03-15 08:49:00,
2013-03-15 04:55:00,15.1,-2.4,29.32,NNE,22,1.6,1.6,45,0.00,,---,0.00,VWS V14.01,2013-03-15 08:55:00,
2013-03-15 05:00:00,14.9,-2.6,29.32,NNW,338,1.1,3.1,45,0.00,,---,0.00,VWS V14.01,2013-03-15 09:00:00,
2013-03-15 05:05:00,15.1,-2.9,29.32,ENE,68,2.9,4.3,44,0.00,,---,0.00,VWS V14.01,2013-03-15 09:05:00,
2013-03-15 05:10:00,15.3,-2.7,29.32,ESE,112,3.6,3.8,44,0.00,,---,0.00,VWS V14.01,2013-03-15 09:10:00,
2013-03-15 05:15:00,15.3,-2.3,29.32,ENE,68,2.2,2.7,45,0.00,,---,0.00,VWS V14.01,2013-03-15 09:15:00,
2013-03-15 05:20:00,14.5,-2.9,29.32,West,270,1.6,3.1,45,0.00,,---,0.00,VWS V14.01,2013-03-15 09:20:00,
2013-03-15 05:25:00,13.6,-3.8,29.32,West,270,1.6,2.0,45,0.00,,---,0.00,VWS V14.01,2013-03-15 09:25:00,
2013-03-15 05:31:00,13.3,-4.1,29.32,WNW,292,3.6,4.3,45,0.00,,---,0.00,VWS V14.01,2013-03-15 09:31:00,
2013-03-15 05:37:00,12.6,-4.7,29.32,WSW,248,0.0,1.1,45,0.00,,---,0.00,VWS V14.01,2013-03-15 09:37:00,
2013-03-15 05:42:00,12.0,-5.2,29.32,WSW,248,0.0,0.0,45,0.00,,---,0.00,VWS V14.01,2013-03-15 09:42:00,
2013-03-15 05:47:00,11.7,-5.6,29.32,WSW,248,0.0,0.0,45,0.00,,---,0.00,VWS V14.01,2013-03-15 09:47:00,
2013-03-15 05:53:00,11.7,-5.6,29.32,SW,225,2.9,4.3,45,0.00,,---,0.00,VWS V14.01,2013-03-15 09:53:00,
2013-03-15 05:59:00,11.7,-5.6,29.32,SW,225,0.0,0.0,45,0.00,,---,0.00,VWS V14.01,2013-03-15 09:59:00,
2013-03-15 06:05:00,11.1,-6.1,29.32,SW,225,0.0,0.0,45,0.00,,---,0.00,VWS V14.01,2013-03-15 10:05:00,
2013-03-15 06:10:00,10.9,-6.2,29.32,SW,225,0.0,1.6,45,0.00,,---,0.00,VWS V14.01,2013-03-15 10:10:00,
2013-03-15 06:16:00,10.8,-6.4,29.32,SW,225,2.0,2.2,45,0.00,,---,0.00,VWS V14.01,2013-03-15 10:16:00,
2013-03-15 06:22:00,10.6,-6.6,29.32,SW,225,2.2,2.2,45,0.00,,---,0.00,VWS V14.01,2013-03-15 10:22:00,
2013-03-15 06:28:00,10.2,-6.9,29.32,SW,225,1.1,1.3,45,0.00,,---,0.00,VWS V14.01,2013-03-15 10:28:00,
2013-03-15 06:33:00,10.0,-7.1,29.32,SW,225,1.6,2.0,45,0.00,,---,0.00,VWS V14.01,2013-03-15 10:33:00,
2013-03-15 06:38:00,9.9,-7.2,29.32,SW,225,0.0,0.0,45,0.00,,---,0.00,VWS V14.01,2013-03-15 10:38:00,
2013-03-15 06:44:00,9.5,-7.6,29.32,SW,225,0.0,0.0,45,0.00,,---,0.00,VWS V14.01,2013-03-15 10:44:00,
2013-03-15 06:49:00,9.3,-7.7,29.32,SW,225,2.2,2.2,45,0.00,,---,0.00,VWS V14.01,2013-03-15 10:49:00,
2013-03-15 06:54:00,9.3,-7.7,29.32,SW,225,0.0,0.0,45,0.00,,---,0.00,VWS V14.01,2013-03-15 10:54:00,
2013-03-15 06:59:00,9.1,-7.9,29.32,SW,225,1.1,1.1,45,0.00,,---,0.00,VWS V14.01,2013-03-15 10:59:00,
2013-03-15 07:04:00,9.1,-7.9,29.32,SW,225,0.0,0.0,45,0.00,,---,0.00,VWS V14.01,2013-03-15 11:04:00,
2013-03-15 07:09:00,9.0,-8.1,29.32,SW,225,0.0,0.0,45,0.00,,---,0.00,VWS V14.01,2013-03-15 11:09:00,
2013-03-15 07:15:00,9.1,-7.9,29.32,SW,225,2.0,2.2,45,0.00,,---,0.00,VWS V14.01,2013-03-15 11:15:00,
2013-03-15 07:20:00,9.1,-7.9,29.32,SW,225,1.1,1.3,45,0.00,,---,0.00,VWS V14.01,2013-03-15 11:20:00,
2013-03-15 07:26:00,9.1,-7.9,29.32,SW,225,0.0,0.0,45,0.00,,---,0.00,VWS V14.01,2013-03-15 11:26:00,
2013-03-15 07:32:00,9.3,-7.7,29.32,SW,225,2.0,2.2,45,0.00,,---,0.00,VWS V14.01,2013-03-15 11:32:00,
2013-03-15 07:37:00,9.7,-7.4,29.32,SW,225,1.3,1.6,45,0.00,,---,0.00,VWS V14.01,2013-03-15 11:37:00,
2013-03-15 07:42:00,9.9,-7.2,29.32,SW,225,1.3,1.6,45,0.00,,---,0.00,VWS V14.01,2013-03-15 11:42:00,
2013-03-15 07:47:00,10.0,-7.1,29.32,SW,225,0.0,0.0,45,0.00,,---,0.00,VWS V14.01,2013-03-15 11:47:00,
2013-03-15 07:52:00,10.6,-6.6,29.32,SW,225,0.0,1.1,45,0.00,,---,0.00,VWS V14.01,2013-03-15 11:52:00,
2013-03-15 07:57:00,11.1,-6.1,29.32,SW,225,0.0,1.1,45,0.00,,---,0.00,VWS V14.01,2013-03-15 11:57:00,
2013-03-15 08:02:00,11.8,-5.4,29.32,SW,225,0.0,0.0,45,0.00,,---,0.00,VWS V14.01,2013-03-15 12:02:00,
2013-03-15 08:08:00,12.7,-4.6,29.32,SW,225,0.0,0.0,45,0.00,,---,0.00,VWS V14.01,2013-03-15 12:08:00,
2013-03-15 08:13:00,13.6,-3.8,29.32,SSW,202,0.0,0.0,45,0.00,,---,0.00,VWS V14.01,2013-03-15 12:13:00,
2013-03-15 08:18:00,14.5,1.7,29.32,SSE,158,1.1,1.3,56,0.00,,---,0.00,VWS V14.01,2013-03-15 12:18:00,
2013-03-15 08:23:00,15.4,2.2,29.32,ENE,68,0.9,3.6,55,0.00,,---,0.00,VWS V14.01,2013-03-15 12:23:00,
2013-03-15 08:28:00,16.5,2.8,29.32,NE,45,1.1,1.6,54,0.00,,---,0.00,VWS V14.01,2013-03-15 12:28:00,
2013-03-15 08:33:00,17.4,3.6,29.32,SW,225,0.0,2.2,54,0.00,,---,0.00,VWS V14.01,2013-03-15 12:33:00,
2013-03-15 08:39:00,18.3,4.1,29.32,North,0,0.0,2.2,53,0.00,,---,0.00,VWS V14.01,2013-03-15 12:39:00,
2013-03-15 08:44:00,18.9,3.7,29.32,South,180,1.1,3.4,51,0.00,,---,0.00,VWS V14.01,2013-03-15 12:44:00,
2013-03-15 08:49:00,20.1,4.5,29.32,ENE,68,0.0,2.0,50,0.00,,---,0.00,VWS V14.01,2013-03-15 12:49:00,
2013-03-15 08:54:00,20.8,4.7,29.32,SW,225,1.1,1.1,49,0.00,,---,0.00,VWS V14.01,2013-03-15 12:54:00,
2013-03-15 08:59:00,21.2,4.6,29.32,WSW,248,1.6,1.6,48,0.00,,---,0.00,VWS V14.01,2013-03-15 12:59:00,
2013-03-15 09:04:00,21.2,4.1,29.32,South,180,1.3,2.0,47,0.00,,---,0.00,VWS V14.01,2013-03-15 13:04:00,
2013-03-15 09:09:00,21.2,3.7,29.32,ENE,68,3.1,3.1,46,0.00,,---,0.00,VWS V14.01,2013-03-15 13:09:00,
2013-03-15 09:14:00,21.6,4.0,29.32,WNW,292,2.0,2.0,46,0.00,,---,0.00,VWS V14.01,2013-03-15 13:14:00,
2013-03-15 09:19:00,21.6,3.5,29.32,WNW,292,2.0,2.0,45,0.00,,---,0.00,VWS V14.01,2013-03-15 13:19:00,
2013-03-15 09:24:00,21.4,3.3,29.32,SSW,202,3.1,3.8,45,0.00,,---,0.00,VWS V14.01,2013-03-15 13:24:00,
2013-03-15 09:29:00,21.2,3.2,29.32,SSW,202,0.0,0.0,45,0.00,,---,0.00,VWS V14.01,2013-03-15 13:29:00,
2013-03-15 09:34:00,21.2,3.2,29.32,SSW,202,0.0,0.0,45,0.00,,---,0.00,VWS V14.01,2013-03-15 13:34:00,
2013-03-15 09:39:00,21.6,3.5,29.32,East,90,1.6,2.0,45,0.00,,---,0.00,VWS V14.01,2013-03-15 13:39:00,
2013-03-15 09:45:00,21.6,3.0,29.32,ENE,68,1.6,1.6,44,0.00,,---,0.00,VWS V14.01,2013-03-15 13:45:00,
2013-03-15 09:51:00,21.9,3.8,29.32,NW,315,0.0,0.0,45,0.00,,---,0.00,VWS V14.01,2013-03-15 13:51:00,
2013-03-15 09:56:00,22.8,4.7,29.32,ENE,68,2.0,3.1,45,0.00,,---,0.00,VWS V14.01,2013-03-15 13:56:00,
2013-03-15 10:01:00,23.5,4.8,29.32,ENE,68,3.8,3.8,44,0.00,,---,0.00,VWS V14.01,2013-03-15 14:01:00,
2013-03-15 10:06:00,24.3,5.5,29.32,NE,45,1.6,2.0,44,0.00,,---,0.00,VWS V14.01,2013-03-15 14:06:00,
2013-03-15 10:11:00,25.0,5.7,29.32,ENE,68,1.6,1.6,43,0.00,,---,0.00,VWS V14.01,2013-03-15 14:11:00,
2013-03-15 10:17:00,25.7,6.3,29.32,ENE,68,1.3,2.2,43,0.00,,---,0.00,VWS V14.01,2013-03-15 14:17:00,
2013-03-15 10:22:00,25.9,6.5,29.32,ENE,68,1.3,3.4,43,0.00,,---,0.00,VWS V14.01,2013-03-15 14:22:00,
2013-03-15 10:28:00,26.2,6.3,29.32,ENE,68,3.1,3.1,42,0.00,,---,0.00,VWS V14.01,2013-03-15 14:28:00,
2013-03-15 10:33:00,26.6,6.6,29.32,ENE,68,2.2,2.7,42,0.00,,---,0.00,VWS V14.01,2013-03-15 14:33:00,
2013-03-15 10:38:00,27.7,7.6,29.32,ENE,68,1.1,1.3,42,0.00,,---,0.00,VWS V14.01,2013-03-15 14:38:00,
2013-03-15 10:44:00,27.5,6.9,29.29,East,90,1.1,4.0,41,0.00,,---,0.00,VWS V14.01,2013-03-15 14:44:00,
2013-03-15 10:49:00,27.9,7.2,29.29,NNE,22,0.0,0.0,41,0.00,,---,0.00,VWS V14.01,2013-03-15 14:49:00,
2013-03-15 10:54:00,28.2,7.6,29.29,ENE,68,2.5,5.8,41,0.00,,---,0.00,VWS V14.01,2013-03-15 14:54:00,
2013-03-15 11:00:00,28.2,7.6,29.29,West,270,1.6,1.6,41,0.00,,---,0.00,VWS V14.01,2013-03-15 15:00:00,
2013-03-15 11:05:00,27.9,7.2,29.29,SW,225,2.0,3.8,41,0.00,,---,0.00,VWS V14.01,2013-03-15 15:05:00,
2013-03-15 11:10:00,27.1,6.6,29.29,ENE,68,4.7,5.6,41,0.00,,---,0.00,VWS V14.01,2013-03-15 15:10:00,
2013-03-15 11:15:00,27.0,6.4,29.29,NE,45,1.6,3.1,41,0.00,,---,0.00,VWS V14.01,2013-03-15 15:15:00,
2013-03-15 11:20:00,27.0,6.4,29.29,SW,225,1.1,2.2,41,0.00,,---,0.00,VWS V14.01,2013-03-15 15:20:00,
2013-03-15 11:25:00,27.5,6.9,29.29,SW,225,0.0,0.0,41,0.00,,---,0.00,VWS V14.01,2013-03-15 15:25:00,
2013-03-15 11:30:00,28.4,7.7,29.29,SSW,202,1.1,1.6,41,0.00,,---,0.00,VWS V14.01,2013-03-15 15:30:00,
2013-03-15 11:35:00,29.3,8.5,29.29,East,90,3.8,3.8,41,0.00,,---,0.00,VWS V14.01,2013-03-15 15:35:00,
2013-03-15 11:40:00,29.7,8.9,29.29,NE,45,2.5,2.5,41,0.00,,---,0.00,VWS V14.01,2013-03-15 15:40:00,
2013-03-15 11:45:00,29.7,8.9,29.26,ENE,68,4.0,4.0,41,0.00,,---,0.00,VWS V14.01,2013-03-15 15:45:00,
2013-03-15 11:50:00,29.1,7.8,29.26,ENE,68,3.8,4.0,40,0.00,,---,0.00,VWS V14.01,2013-03-15 15:50:00,
2013-03-15 11:55:00,29.1,8.4,29.26,East,90,1.6,2.0,41,0.00,,---,0.00,VWS V14.01,2013-03-15 15:55:00,
2013-03-15 12:00:00,29.3,8.5,29.26,ESE,112,1.6,1.6,41,0.00,,---,0.00,VWS V14.01,2013-03-15 16:00:00,
2013-03-15 12:06:00,28.8,8.0,29.26,West,270,3.4,3.4,41,0.00,,---,0.00,VWS V14.01,2013-03-15 16:06:00,
2013-03-15 12:11:00,28.9,7.7,29.26,ESE,112,3.4,5.6,40,0.00,,---,0.00,VWS V14.01,2013-03-15 16:11:00,
2013-03-15 12:16:00,28.9,8.2,29.26,SSW,202,2.7,5.4,41,0.00,,---,0.00,VWS V14.01,2013-03-15 16:16:00,
2013-03-15 12:22:00,29.1,8.4,29.26,NNW,338,1.6,1.6,41,0.00,,---,0.00,VWS V14.01,2013-03-15 16:22:00,
2013-03-15 12:27:00,28.9,7.7,29.26,ENE,68,2.9,3.4,40,0.00,,---,0.00,VWS V14.01,2013-03-15 16:27:00,
2013-03-15 12:33:00,29.5,8.7,29.23,East,90,0.0,2.2,41,0.00,,---,0.00,VWS V14.01,2013-03-15 16:33:00,
2013-03-15 12:38:00,30.0,8.6,29.23,NE,45,2.5,3.6,40,0.00,,---,0.00,VWS V14.01,2013-03-15 16:38:00,
2013-03-15 12:44:00,30.2,8.8,29.23,ESE,112,1.6,4.9,40,0.00,,---,0.00,VWS V14.01,2013-03-15 16:44:00,
2013-03-15 12:51:00,30.7,8.7,29.23,ENE,68,2.7,3.1,39,0.00,,---,0.00,VWS V14.01,2013-03-15 16:51:00,
2013-03-15 12:56:00,30.9,9.4,29.23,ENE,68,1.1,4.0,40,0.00,,---,0.00,VWS V14.01,2013-03-15 16:56:00,
2013-03-15 13:01:00,31.1,9.6,29.23,ENE,68,3.1,3.1,40,0.00,,---,0.00,VWS V14.01,2013-03-15 17:01:00,
2013-03-15 13:06:00,31.1,9.1,29.23,East,90,4.3,4.3,39,0.00,,---,0.00,VWS V14.01,2013-03-15 17:06:00,
2013-03-15 13:11:00,31.1,9.1,29.23,ENE,68,3.4,3.4,39,0.00,,---,0.00,VWS V14.01,2013-03-15 17:11:00,
2013-03-15 13:16:00,31.3,8.6,29.20,NE,45,3.6,3.6,38,0.00,,---,0.00,VWS V14.01,2013-03-15 17:16:00,
2013-03-15 13:22:00,32.0,9.3,29.20,NNE,22,2.2,2.5,38,0.00,,---,0.00,VWS V14.01,2013-03-15 17:22:00,
2013-03-15 13:27:00,32.5,10.4,29.20,South,180,1.1,2.2,39,0.00,,---,0.00,VWS V14.01,2013-03-15 17:27:00,
2013-03-15 13:33:00,33.3,10.4,29.20,North,0,1.6,2.0,38,0.00,,---,0.00,VWS V14.01,2013-03-15 17:33:00,
2013-03-15 13:39:00,33.8,10.3,29.20,ENE,68,1.6,3.6,37,0.00,,---,0.00,VWS V14.01,2013-03-15 17:39:00,
2013-03-15 13:45:00,34.9,11.3,29.17,WSW,248,5.4,5.4,37,0.00,,---,0.00,VWS V14.01,2013-03-15 17:45:00,
2013-03-15 13:51:00,35.4,11.8,29.17,NNW,338,1.6,2.9,37,0.00,,---,0.00,VWS V14.01,2013-03-15 17:51:00,
2013-03-15 13:56:00,35.4,11.1,29.17,ENE,68,2.7,4.9,36,0.00,,---,0.00,VWS V14.01,2013-03-15 17:56:00,
2013-03-15 14:01:00,35.8,10.2,29.17,NNE,22,4.0,7.6,34,0.00,,---,0.00,VWS V14.01,2013-03-15 18:01:00,
2013-03-15 14:08:00,37.0,12.6,29.17,East,90,2.2,2.2,36,0.00,,---,0.00,VWS V14.01,2013-03-15 18:08:00,
2013-03-15 14:13:00,37.6,13.1,29.17,ENE,68,6.3,6.3,36,0.00,,---,0.00,VWS V14.01,2013-03-15 18:13:00,
2013-03-15 14:18:00,37.8,12.6,29.17,NNE,22,1.1,1.6,35,0.00,,---,0.00,VWS V14.01,2013-03-15 18:18:00,
2013-03-15 14:23:00,38.1,12.9,29.17,NNE,22,1.3,1.3,35,0.00,,---,0.00,VWS V14.01,2013-03-15 18:23:00,
2013-03-15 14:29:00,38.1,12.9,29.14,ESE,112,2.5,2.9,35,0.00,,---,0.00,VWS V14.01,2013-03-15 18:29:00,
2013-03-15 14:35:00,37.4,12.3,29.14,SW,225,2.0,2.0,35,0.00,,---,0.00,VWS V14.01,2013-03-15 18:35:00,
2013-03-15 14:40:00,36.7,11.6,29.14,ENE,68,2.9,2.9,35,0.00,,---,0.00,VWS V14.01,2013-03-15 18:40:00,
2013-03-15 14:46:00,35.8,10.2,29.14,ENE,68,2.5,2.5,34,0.00,,---,0.00,VWS V14.01,2013-03-15 18:46:00,
2013-03-15 14:51:00,35.8,10.2,29.14,ENE,68,2.5,3.4,34,0.00,,---,0.00,VWS V14.01,2013-03-15 18:51:00,
2013-03-15 14:56:00,35.8,10.8,29.14,SE,135,2.5,2.9,35,0.00,,---,0.00,VWS V14.01,2013-03-15 18:56:00,
2013-03-15 15:01:00,35.8,10.8,29.14,ENE,68,2.2,2.5,35,0.00,,---,0.00,VWS V14.01,2013-03-15 19:01:00,
2013-03-15 15:06:00,35.8,10.8,29.14,ENE,68,0.0,0.0,35,0.00,,---,0.00,VWS V14.01,2013-03-15 19:06:00,
2013-03-15 15:11:00,35.8,10.8,29.14,NNW,338,0.0,0.0,35,0.00,,---,0.00,VWS V14.01,2013-03-15 19:11:00,
2013-03-15 15:16:00,35.8,10.2,29.14,East,90,1.1,2.0,34,0.00,,---,0.00,VWS V14.01,2013-03-15 19:16:00,
2013-03-15 15:21:00,35.6,10.0,29.14,NW,315,2.2,2.2,34,0.00,,---,0.00,VWS V14.01,2013-03-15 19:21:00,
2013-03-15 15:26:00,35.6,10.0,29.14,NW,315,0.0,0.9,34,0.00,,---,0.00,VWS V14.01,2013-03-15 19:26:00,
2013-03-15 15:31:00,35.6,10.0,29.14,NW,315,2.5,2.7,34,0.00,,---,0.00,VWS V14.01,2013-03-15 19:31:00,
2013-03-15 15:36:00,35.4,9.9,29.14,NW,315,0.0,0.0,34,0.00,,---,0.00,VWS V14.01,2013-03-15 19:36:00,
2013-03-15 15:41:00,35.8,10.2,29.14,NW,315,0.0,0.0,34,0.00,,---,0.00,VWS V14.01,2013-03-15 19:41:00,
2013-03-15 15:47:00,35.6,10.0,29.14,NW,315,1.1,1.3,34,0.00,,---,0.00,VWS V14.01,2013-03-15 19:47:00,
2013-03-15 15:52:00,35.4,10.5,29.14,NW,315,0.0,0.0,35,0.00,,---,0.00,VWS V14.01,2013-03-15 19:52:00,
2013-03-15 15:58:00,35.1,10.2,29.14,NW,315,0.9,1.6,35,0.00,,---,0.00,VWS V14.01,2013-03-15 19:58:00,
2013-03-15 16:03:00,35.1,10.2,29.12,NE,45,0.0,0.0,35,0.00,,---,0.00,VWS V14.01,2013-03-15 20:03:00,
2013-03-15 16:08:00,35.1,10.2,29.12,NE,45,0.0,0.0,35,0.00,,---,0.00,VWS V14.01,2013-03-15 20:08:00,
2013-03-15 16:13:00,35.1,10.2,29.14,NE,45,0.0,0.0,35,0.00,,---,0.00,VWS V14.01,2013-03-15 20:13:00,
2013-03-15 16:18:00,35.6,10.7,29.14,NE,45,0.0,0.0,35,0.00,,---,0.00,VWS V14.01,2013-03-15 20:18:00,
2013-03-15 16:24:00,36.3,11.3,29.14,NE,45,0.0,0.9,35,0.00,,---,0.00,VWS V14.01,2013-03-15 20:24:00,
2013-03-15 16:29:00,36.7,11.6,29.12,WNW,292,1.1,1.3,35,0.00,,---,0.00,VWS V14.01,2013-03-15 20:29:00,
2013-03-15 16:34:00,38.3,13.1,29.12,WNW,292,0.9,2.7,35,0.00,,---,0.00,VWS V14.01,2013-03-15 20:34:00,
2013-03-15 16:39:00,39.7,13.7,29.12,SSW,202,0.0,1.1,34,0.00,,---,0.00,VWS V14.01,2013-03-15 20:39:00,
2013-03-15 16:44:00,39.9,13.8,29.12,ESE,112,0.0,0.0,34,0.00,,---,0.00,VWS V14.01,2013-03-15 20:44:00,
2013-03-15 16:49:00,40.3,14.8,29.12,East,90,1.6,2.0,35,0.00,,---,0.00,VWS V14.01,2013-03-15 20:49:00,
2013-03-15 16:55:00,39.2,13.9,29.12,ENE,68,2.0,2.5,35,0.00,,---,0.00,VWS V14.01,2013-03-15 20:55:00,
2013-03-15 17:00:00,38.7,13.4,29.12,ENE,68,1.1,1.1,35,0.00,,---,0.00,VWS V14.01,2013-03-15 21:00:00,
2013-03-15 17:05:00,38.5,13.2,29.12,ENE,68,1.3,1.6,35,0.00,,---,0.00,VWS V14.01,2013-03-15 21:05:00,
2013-03-15 17:10:00,39.0,13.7,29.12,NE,45,0.0,0.0,35,0.00,,---,0.00,VWS V14.01,2013-03-15 21:10:00,
2013-03-15 17:15:00,39.0,13.7,29.12,NE,45,0.0,1.1,35,0.00,,---,0.00,VWS V14.01,2013-03-15 21:15:00,
2013-03-15 17:21:00,38.8,12.9,29.12,NE,45,0.0,0.0,34,0.00,,---,0.00,VWS V14.01,2013-03-15 21:21:00,
2013-03-15 17:26:00,39.0,13.7,29.12,SE,135,2.0,3.1,35,0.00,,---,0.00,VWS V14.01,2013-03-15 21:26:00,
2013-03-15 17:31:00,39.2,13.2,29.12,ESE,112,2.0,6.5,34,0.00,,---,0.00,VWS V14.01,2013-03-15 21:31:00,
2013-03-15 17:36:00,38.8,13.5,29.12,WSW,248,3.1,3.4,35,0.00,,---,0.00,VWS V14.01,2013-03-15 21:36:00,
2013-03-15 17:42:00,37.9,12.1,29.12,West,270,3.8,3.8,34,0.00,,---,0.00,VWS V14.01,2013-03-15 21:42:00,
2013-03-15 17:47:00,37.4,11.6,29.12,West,270,2.7,2.9,34,0.00,,---,0.00,VWS V14.01,2013-03-15 21:47:00,
2013-03-15 17:52:00,36.9,11.1,29.12,WNW,292,2.0,3.1,34,0.00,,---,0.00,VWS V14.01,2013-03-15 21:52:00,
2013-03-15 17:57:00,36.5,12.1,29.12,WNW,292,3.8,3.8,36,0.00,,---,0.00,VWS V14.01,2013-03-15 21:57:00,
2013-03-15 18:02:00,36.0,12.2,29.12,WNW,292,6.3,6.3,37,0.00,,---,0.00,VWS V14.01,2013-03-15 22:02:00,
2013-03-15 18:08:00,35.4,13.5,29.12,NW,315,2.0,3.1,40,0.00,,---,0.00,VWS V14.01,2013-03-15 22:08:00,
2013-03-15 18:14:00,34.9,13.0,29.12,WSW,248,1.3,3.8,40,0.00,,---,0.00,VWS V14.01,2013-03-15 22:14:00,
2013-03-15 18:19:00,34.3,12.5,29.12,WSW,248,3.1,4.0,40,0.00,,---,0.00,VWS V14.01,2013-03-15 22:19:00,
2013-03-15 18:24:00,34.3,12.5,29.12,West,270,2.7,3.1,40,0.00,,---,0.00,VWS V14.01,2013-03-15 22:24:00,
2013-03-15 18:29:00,33.3,12.1,29.14,West,270,1.3,3.4,41,0.00,,---,0.00,VWS V14.01,2013-03-15 22:29:00,
2013-03-15 18:35:00,32.7,12.2,29.14,SW,225,2.0,2.2,42,0.00,,---,0.00,VWS V14.01,2013-03-15 22:35:00,
2013-03-15 18:40:00,32.2,12.2,29.14,West,270,1.1,2.0,43,0.00,,---,0.00,VWS V14.01,2013-03-15 22:40:00,
2013-03-15 18:47:00,31.6,12.2,29.14,West,270,1.6,2.2,44,0.00,,---,0.00,VWS V14.01,2013-03-15 22:47:00,
2013-03-15 18:52:00,31.1,11.8,29.14,WSW,248,1.3,1.6,44,0.00,,---,0.00,VWS V14.01,2013-03-15 22:52:00,
2013-03-15 18:58:00,30.9,12.1,29.14,WSW,248,0.0,0.0,45,0.00,,---,0.00,VWS V14.01,2013-03-15 22:58:00,
2013-03-15 19:03:00,30.6,11.8,29.14,WSW,248,0.0,0.0,45,0.00,,---,0.00,VWS V14.01,2013-03-15 23:03:00,
2013-03-15 19:09:00,30.2,11.4,29.14,WSW,248,1.3,1.3,45,0.00,,---,0.00,VWS V14.01,2013-03-15 23:09:00,
2013-03-15 19:14:00,30.0,11.8,29.14,SSW,202,1.3,3.1,46,0.00,,---,0.00,VWS V14.01,2013-03-15 23:14:00,
2013-03-15 19:20:00,29.5,11.3,29.14,SSW,202,0.0,0.0,46,0.00,,---,0.00,VWS V14.01,2013-03-15 23:20:00,
2013-03-15 19:26:00,28.8,10.6,29.14,SSW,202,1.1,1.1,46,0.00,,---,0.00,VWS V14.01,2013-03-15 23:26:00,
2013-03-15 19:31:00,28.6,10.9,29.14,SSW,202,0.0,0.0,47,0.00,,---,0.00,VWS V14.01,2013-03-15 23:31:00,
2013-03-15 19:36:00,28.0,10.4,29.14,SSW,202,0.0,0.0,47,0.00,,---,0.00,VWS V14.01,2013-03-15 23:36:00,
2013-03-15 19:42:00,27.7,10.6,29.14,SSW,202,0.0,0.0,48,0.00,,---,0.00,VWS V14.01,2013-03-15 23:42:00,
2013-03-15 19:47:00,27.5,10.9,29.14,SSW,202,0.0,0.0,49,0.00,,---,0.00,VWS V14.01,2013-03-15 23:47:00,
2013-03-15 19:53:00,27.3,10.7,29.14,SSW,202,0.0,0.0,49,0.00,,---,0.00,VWS V14.01,2013-03-15 23:53:00,
2013-03-15 19:58:00,27.1,10.5,29.14,SSW,202,1.6,1.6,49,0.00,,---,0.00,VWS V14.01,2013-03-15 23:58:00,
2013-03-15 20:04:00,27.0,10.8,29.14,SSW,202,0.0,0.0,50,0.00,,---,0.00,VWS V14.01,2013-03-16 00:04:00,
2013-03-15 20:09:00,27.0,11.3,29.14,SSW,202,0.0,0.0,51,0.00,,---,0.00,VWS V14.01,2013-03-16 00:09:00,
2013-03-15 20:15:00,26.4,11.2,29.14,SSW,202,0.0,0.0,52,0.00,,---,0.00,VWS V14.01,2013-03-16 00:15:00,
2013-03-15 20:20:00,26.4,11.2,29.14,SSW,202,0.0,0.0,52,0.00,,---,0.00,VWS V14.01,2013-03-16 00:20:00,
2013-03-15 20:25:00,26.6,11.4,29.14,SSW,202,1.1,1.3,52,0.00,,---,0.00,VWS V14.01,2013-03-16 00:25:00,
2013-03-15 20:30:00,26.4,11.6,29.14,SSW,202,0.0,0.0,53,0.00,,---,0.00,VWS V14.01,2013-03-16 00:30:00,
2013-03-15 20:35:00,26.2,11.4,29.14,WSW,248,0.0,1.6,53,0.00,,---,0.00,VWS V14.01,2013-03-16 00:35:00,
2013-03-15 20:40:00,26.1,11.7,29.14,WSW,248,0.0,0.0,54,0.00,,---,0.00,VWS V14.01,2013-03-16 00:40:00,
2013-03-15 20:45:00,26.1,11.7,29.14,South,180,0.0,0.0,54,0.00,,---,0.00,VWS V14.01,2013-03-16 00:45:00,
2013-03-15 20:50:00,26.2,11.9,29.14,South,180,0.0,0.0,54,0.00,,---,0.00,VWS V14.01,2013-03-16 00:50:00,
2013-03-15 20:56:00,26.2,12.3,29.14,South,180,0.0,0.0,55,0.00,,---,0.00,VWS V14.01,2013-03-16 00:56:00,
2013-03-15 21:01:00,26.4,12.5,29.14,South,180,0.0,0.0,55,0.00,,---,0.00,VWS V14.01,2013-03-16 01:01:00,
2013-03-15 21:06:00,26.6,12.6,29.14,South,180,0.0,0.0,55,0.00,,---,0.00,VWS V14.01,2013-03-16 01:06:00,
2013-03-15 21:11:00,26.2,12.7,29.14,South,180,0.0,0.0,56,0.00,,---,0.00,VWS V14.01,2013-03-16 01:11:00,
2013-03-15 21:16:00,26.2,12.7,29.14,South,180,0.0,0.0,56,0.00,,---,0.00,VWS V14.01,2013-03-16 01:16:00,
2013-03-15 21:21:00,26.2,12.7,29.14,South,180,0.0,0.0,56,0.00,,---,0.00,VWS V14.01,2013-03-16 01:21:00,
2013-03-15 21:26:00,26.4,13.3,29.14,West,270,2.0,3.6,57,0.00,,---,0.00,VWS V14.01,2013-03-16 01:26:00,
2013-03-15 21:31:00,26.4,13.3,29.17,WSW,248,1.3,1.6,57,0.00,,---,0.00,VWS V14.01,2013-03-16 01:31:00,
2013-03-15 21:36:00,26.4,13.3,29.17,WSW,248,1.3,2.2,57,0.00,,---,0.00,VWS V14.01,2013-03-16 01:36:00,
2013-03-15 21:42:00,26.6,13.4,29.17,SW,225,1.1,2.2,57,0.00,,---,0.00,VWS V14.01,2013-03-16 01:42:00,
2013-03-15 21:47:00,26.6,13.8,29.17,SW,225,0.9,1.6,58,0.00,,---,0.00,VWS V14.01,2013-03-16 01:47:00,
2013-03-15 21:53:00,26.4,13.7,29.17,SW,225,0.0,0.0,58,0.00,,---,0.00,VWS V14.01,2013-03-16 01:53:00,
2013-03-15 21:58:00,26.2,13.5,29.17,SW,225,0.0,0.0,58,0.00,,---,0.00,VWS V14.01,2013-03-16 01:58:00,
2013-03-15 22:04:00,26.4,13.7,29.17,SW,225,0.0,0.0,58,0.00,,---,0.00,VWS V14.01,2013-03-16 02:04:00,
2013-03-15 22:09:00,26.4,13.7,29.17,SW,225,0.0,0.0,58,0.00,,---,0.00,VWS V14.01,2013-03-16 02:09:00,
2013-03-15 22:15:00,26.8,14.0,29.17,SW,225,0.0,0.0,58,0.00,,---,0.00,VWS V14.01,2013-03-16 02:15:00,
2013-03-15 22:20:00,27.0,14.2,29.17,SW,225,0.0,0.0,58,0.00,,---,0.00,VWS V14.01,2013-03-16 02:20:00,
2013-03-15 22:25:00,27.0,14.2,29.17,SW,225,0.0,0.0,58,0.00,,---,0.00,VWS V14.01,2013-03-16 02:25:00,
2013-03-15 22:30:00,26.8,14.0,29.17,SW,225,0.0,0.0,58,0.00,,---,0.00,VWS V14.01,2013-03-16 02:30:00,
2013-03-15 22:35:00,26.6,14.2,29.17,SW,225,0.0,0.0,59,0.00,,---,0.00,VWS V14.01,2013-03-16 02:35:00,
2013-03-15 22:40:00,26.6,14.2,29.17,SW,225,0.0,0.0,59,0.00,,---,0.00,VWS V14.01,2013-03-16 02:40:00,
2013-03-15 22:46:00,26.2,13.9,29.17,SW,225,0.0,0.0,59,0.00,,---,0.00,VWS V14.01,2013-03-16 02:46:00,
2013-03-15 22:51:00,26.1,14.1,29.17,SW,225,0.0,0.0,60,0.00,,---,0.00,VWS V14.01,2013-03-16 02:51:00,
2013-03-15 22:56:00,26.1,14.1,29.17,SW,225,0.0,0.0,60,0.00,,---,0.00,VWS V14.01,2013-03-16 02:56:00,
2013-03-15 23:01:00,26.1,14.1,29.17,South,180,0.0,2.2,60,0.00,,---,0.00,VWS V14.01,2013-03-16 03:01:00,
2013-03-15 23:06:00,26.1,14.1,29.17,South,180,1.3,1.3,60,0.00,,---,0.00,VWS V14.01,2013-03-16 03:06:00,
2013-03-15 23:12:00,25.7,14.1,29.17,South,180,0.0,0.0,61,0.00,,---,0.00,VWS V14.01,2013-03-16 03:12:00,
2013-03-15 23:17:00,25.5,14.0,29.17,NNE,22,0.0,0.0,61,0.00,,---,0.00,VWS V14.01,2013-03-16 03:17:00,
2013-03-15 23:23:00,25.2,13.6,29.17,NNE,22,2.2,2.5,61,0.00,,---,0.00,VWS V14.01,2013-03-16 03:23:00,
2013-03-15 23:29:00,26.1,15.6,29.17,SSW,202,2.7,4.3,64,0.00,,---,0.00,VWS V14.01,2013-03-16 03:29:00,
2013-03-15 23:34:00,26.4,14.4,29.17,SSW,202,3.6,3.6,60,0.00,,---,0.00,VWS V14.01,2013-03-16 03:34:00,
2013-03-15 23:39:00,26.8,13.6,29.17,South,180,2.7,2.7,57,0.00,,---,0.00,VWS V14.01,2013-03-16 03:39:00,
2013-03-15 23:44:00,27.0,13.0,29.20,WSW,248,2.0,2.5,55,0.00,,---,0.00,VWS V14.01,2013-03-16 03:44:00,
2013-03-15 23:49:00,27.0,12.6,29.20,WNW,292,1.3,2.5,54,0.00,,---,0.00,VWS V14.01,2013-03-16 03:49:00,
2013-03-15 23:54:00,27.3,12.0,29.20,SW,225,2.2,2.9,52,0.00,,---,0.00,VWS V14.01,2013-03-16 03:54:00,
2013-03-15 23:59:00,27.0,11.3,29.17,SW,225,0.0,1.1,51,0.00,,---,0.00,VWS V14.01,2013-03-16 03:59:00,